Time;durP1;ratioP1;P1;durP2;ratioP2;P2;SDS_P1;SDS_P2;PMS_P1;PMS_P2;Temp;Humidity;BMP_temperature;BMP_pressure;BME280_temperature;BME280_humidity;BME280_pressure;Samples;Min_cycle;Max_cycle;Signal;HPM_P1;HPM_P2
2023/04/16 00:01:02;;;;;;;5.20;2.30;;;8.10;39.20;;;;;;5052127;28;20481;-71
2023/04/16 00:03:28;;;;;;;5.90;3.13;;;8.10;39.30;;;;;;5061158;28;20476;-72
2023/04/16 00:05:55;;;;;;;5.60;3.13;;;8.10;39.30;;;;;;5057422;28;20485;-72
2023/04/16 00:08:23;;;;;;;6.00;2.80;;;8.10;39.40;;;;;;5055564;28;20471;-71
2023/04/16 00:10:52;;;;;;;5.53;2.50;;;8.10;39.30;;;;;;5059360;28;20491;-71
2023/04/16 00:13:19;;;;;;;5.47;2.73;;;8.10;39.40;;;;;;5063611;28;20467;-71
2023/04/16 00:15:46;;;;;;;5.87;2.97;;;8.20;39.20;;;;;;5064367;28;20453;-71
2023/04/16 00:18:12;;;;;;;5.47;2.70;;;8.20;39.30;;;;;;5061796;28;20469;-71
2023/04/16 00:20:39;;;;;;;5.70;2.80;;;8.10;39.30;;;;;;5063243;28;20492;-72
2023/04/16 00:23:06;;;;;;;6.10;3.33;;;8.20;39.30;;;;;;5062227;28;20465;-71
2023/04/16 00:25:33;;;;;;;5.67;3.03;;;8.20;39.30;;;;;;5060531;28;20480;-71
2023/04/16 00:28:01;;;;;;;6.30;3.60;;;8.20;39.40;;;;;;5060241;28;20474;-72
2023/04/16 00:30:28;;;;;;;6.53;3.10;;;8.20;39.50;;;;;;5060027;28;20870;-71
2023/04/16 00:32:55;;;;;;;5.77;3.17;;;8.20;39.40;;;;;;5046121;28;20828;-71
2023/04/16 00:35:21;;;;;;;5.90;2.90;;;8.20;39.30;;;;;;5057870;28;20491;-71
2023/04/16 00:37:48;;;;;;;5.70;2.90;;;8.20;39.10;;;;;;5059310;28;20468;-71
2023/04/16 00:40:15;;;;;;;6.37;3.47;;;8.20;39.20;;;;;;5050655;28;20485;-72
2023/04/16 00:42:42;;;;;;;6.47;3.30;;;8.20;39.40;;;;;;5050661;28;20581;-71
2023/04/16 00:45:11;;;;;;;5.80;3.33;;;8.20;39.50;;;;;;5049857;28;20458;-71
2023/04/16 00:47:39;;;;;;;6.23;3.80;;;8.20;39.70;;;;;;5057669;28;20473;-74
2023/04/16 00:50:07;;;;;;;7.23;3.87;;;8.20;39.70;;;;;;5054548;28;21012;-71
2023/04/16 00:52:35;;;;;;;7.27;3.50;;;8.20;39.70;;;;;;5063909;28;20475;-71
2023/04/16 00:55:01;;;;;;;7.10;3.77;;;8.20;39.70;;;;;;5055757;28;20841;-71
2023/04/16 00:57:28;;;;;;;7.60;4.30;;;8.20;39.70;;;;;;5056696;28;20465;-72
2023/04/16 00:59:56;;;;;;;7.77;4.17;;;8.20;39.80;;;;;;5056476;28;21023;-71
2023/04/16 01:02:25;;;;;;;6.90;4.00;;;8.30;40.00;;;;;;5054448;28;20474;-71
2023/04/16 01:04:51;;;;;;;7.10;4.10;;;8.20;39.90;;;;;;5050924;28;21051;-71
2023/04/16 01:07:18;;;;;;;7.20;4.40;;;8.20;40.10;;;;;;5062192;28;20491;-71
2023/04/16 01:09:45;;;;;;;7.77;4.70;;;8.20;40.20;;;;;;5062003;28;20460;-71
2023/04/16 01:12:12;;;;;;;7.17;4.07;;;8.20;40.20;;;;;;5060811;28;20472;-71
2023/04/16 01:14:38;;;;;;;7.40;4.33;;;8.20;40.30;;;;;;5059143;28;20482;-72
2023/04/16 01:17:05;;;;;;;7.60;4.40;;;8.20;40.50;;;;;;5062616;28;20480;-71
2023/04/16 01:19:35;;;;;;;7.20;4.50;;;8.20;40.50;;;;;;5063466;28;20461;-71
2023/04/16 01:22:03;;;;;;;8.27;5.47;;;8.20;40.60;;;;;;5058983;28;20516;-71
2023/04/16 01:24:29;;;;;;;7.20;4.23;;;8.20;40.70;;;;;;5058394;28;20474;-71
2023/04/16 01:26:57;;;;;;;8.90;5.10;;;8.40;40.80;;;;;;5053395;28;20484;-71
2023/04/16 01:29:24;;;;;;;7.77;5.00;;;8.30;40.60;;;;;;5063686;28;20457;-71
2023/04/16 01:31:51;;;;;;;8.90;5.57;;;8.20;40.60;;;;;;5053882;28;20516;-72
2023/04/16 01:34:18;;;;;;;7.83;4.73;;;8.30;40.50;;;;;;5058792;28;20555;-72
2023/04/16 01:36:44;;;;;;;7.80;4.80;;;8.30;40.60;;;;;;5065545;28;20465;-72
2023/04/16 01:39:15;;;;;;;7.93;5.03;;;8.30;40.60;;;;;;5065639;28;20461;-71
2023/04/16 01:41:42;;;;;;;7.27;4.67;;;8.30;40.90;;;;;;5066204;28;20533;-71
2023/04/16 01:44:09;;;;;;;8.40;5.67;;;8.30;41.00;;;;;;5062453;28;20480;-71
2023/04/16 01:46:36;;;;;;;8.67;5.57;;;8.30;41.10;;;;;;5064619;28;20482;-71
2023/04/16 01:49:04;;;;;;;7.67;4.97;;;8.20;41.00;;;;;;5064840;28;20943;-71
2023/04/16 01:51:31;;;;;;;8.80;5.90;;;8.20;41.10;;;;;;5056341;28;20493;-71
2023/04/16 01:53:58;;;;;;;8.27;5.10;;;8.20;41.10;;;;;;5059607;28;20558;-71
2023/04/16 01:56:26;;;;;;;8.50;6.00;;;8.30;41.30;;;;;;5064205;28;20466;-71
2023/04/16 01:58:53;;;;;;;8.17;5.50;;;8.30;41.10;;;;;;5062798;28;20469;-71
2023/04/16 02:01:20;;;;;;;7.70;5.07;;;8.30;40.90;;;;;;5062981;28;20477;-72
2023/04/16 02:03:47;;;;;;;8.90;5.47;;;8.30;40.90;;;;;;5059134;28;20465;-71
2023/04/16 02:06:14;;;;;;;7.57;5.37;;;8.30;40.80;;;;;;5059122;28;20469;-71
2023/04/16 02:08:41;;;;;;;8.00;5.53;;;8.30;41.00;;;;;;5063031;28;20468;-71
2023/04/16 02:11:08;;;;;;;12.33;5.77;;;8.30;41.10;;;;;;5064079;28;20490;-71
2023/04/16 02:13:36;;;;;;;8.40;5.67;;;8.30;41.10;;;;;;5056904;28;20465;-71
2023/04/16 02:16:03;;;;;;;7.40;4.53;;;8.30;41.00;;;;;;5064652;28;20484;-73
2023/04/16 02:18:29;;;;;;;7.67;4.73;;;8.30;41.10;;;;;;5041582;28;20555;-71
2023/04/16 02:20:59;;;;;;;10.17;4.90;;;8.30;41.20;;;;;;5041154;28;20575;-71
2023/04/16 02:23:25;;;;;;;9.23;5.00;;;8.30;41.30;;;;;;5039835;28;20466;-71
2023/04/16 02:25:52;;;;;;;8.33;5.50;;;8.30;41.30;;;;;;5041973;28;20841;-71
2023/04/16 02:28:19;;;;;;;8.03;5.03;;;8.30;41.20;;;;;;5042402;28;20485;-71
2023/04/16 02:30:47;;;;;;;6.87;4.00;;;8.30;41.40;;;;;;5043971;28;21095;-73
2023/04/16 02:33:14;;;;;;;7.70;4.77;;;8.40;41.10;;;;;;5043426;28;20486;-73
2023/04/16 02:35:41;;;;;;;8.07;4.97;;;8.30;41.30;;;;;;5047654;28;20484;-73
2023/04/16 02:38:08;;;;;;;7.43;5.23;;;8.30;41.30;;;;;;5048081;28;20485;-73
2023/04/16 02:40:35;;;;;;;8.13;5.17;;;8.30;41.20;;;;;;5048208;28;20502;-73
2023/04/16 02:43:02;;;;;;;7.80;5.50;;;8.30;41.10;;;;;;5046442;28;20462;-72
2023/04/16 02:45:30;;;;;;;11.40;5.60;;;8.30;41.40;;;;;;5048052;28;20470;-73
2023/04/16 02:47:58;;;;;;;7.40;5.40;;;8.30;41.30;;;;;;5046558;28;20482;-71
2023/04/16 02:50:25;;;;;;;7.97;4.57;;;8.30;41.50;;;;;;5051376;28;20485;-72
2023/04/16 02:52:52;;;;;;;6.97;4.43;;;8.30;41.60;;;;;;5048324;28;20458;-72
2023/04/16 02:55:18;;;;;;;7.77;5.27;;;8.30;41.60;;;;;;5067985;28;20481;-72
2023/04/16 02:57:45;;;;;;;8.33;5.13;;;8.30;41.90;;;;;;5064844;28;20450;-71
2023/04/16 03:00:12;;;;;;;7.00;4.43;;;8.30;42.00;;;;;;5059202;28;20890;-71
2023/04/16 03:02:41;;;;;;;6.80;4.30;;;8.30;42.00;;;;;;5045124;28;20496;-71
2023/04/16 03:05:10;;;;;;;7.40;4.60;;;8.30;42.10;;;;;;5053049;28;20584;-71
2023/04/16 03:07:38;;;;;;;7.77;5.20;;;8.30;42.20;;;;;;5047553;28;20569;-67
2023/04/16 03:10:06;;;;;;;6.70;4.13;;;8.30;42.40;;;;;;5050132;28;20485;-68
2023/04/16 03:12:32;;;;;;;6.93;4.17;;;8.30;42.40;;;;;;5045444;28;20479;-66
2023/04/16 03:14:59;;;;;;;9.53;4.67;;;8.30;42.40;;;;;;5053447;28;20463;-67
2023/04/16 03:17:26;;;;;;;6.20;3.80;;;8.30;42.40;;;;;;5050825;28;20480;-66
2023/04/16 03:19:53;;;;;;;7.83;5.03;;;8.30;42.30;;;;;;5045821;28;20482;-67
2023/04/16 03:22:21;;;;;;;7.03;4.40;;;8.30;42.30;;;;;;5045864;28;20489;-66
2023/04/16 03:24:47;;;;;;;6.83;4.33;;;8.30;42.40;;;;;;5049073;28;20469;-67
2023/04/16 03:27:14;;;;;;;6.73;4.10;;;8.30;42.40;;;;;;5052603;28;20481;-67
2023/04/16 03:29:41;;;;;;;7.10;4.00;;;8.30;42.40;;;;;;5042410;28;20466;-67
2023/04/16 03:32:08;;;;;;;8.10;4.40;;;8.30;42.50;;;;;;5043816;28;20478;-66
2023/04/16 03:34:35;;;;;;;8.30;4.40;;;8.30;42.40;;;;;;5044619;28;20561;-68
2023/04/16 03:37:04;;;;;;;7.37;4.50;;;8.30;42.50;;;;;;5049644;28;21016;-67
2023/04/16 03:39:32;;;;;;;7.90;5.00;;;8.30;42.30;;;;;;5048120;28;20548;-67
2023/04/16 03:41:59;;;;;;;7.27;5.10;;;8.40;42.40;;;;;;5046632;28;20466;-67
2023/04/16 03:44:25;;;;;;;7.30;4.50;;;8.30;42.50;;;;;;5052423;28;20469;-71
2023/04/16 03:46:52;;;;;;;8.03;5.20;;;8.30;42.60;;;;;;5043906;28;20482;-71
2023/04/16 03:49:19;;;;;;;8.40;5.63;;;8.30;42.70;;;;;;5056824;28;20472;-71
2023/04/16 03:51:46;;;;;;;6.73;4.70;;;8.30;42.60;;;;;;5046862;28;20491;-72
2023/04/16 03:54:13;;;;;;;7.60;5.40;;;8.30;42.60;;;;;;5043372;28;20501;-71
2023/04/16 03:56:41;;;;;;;7.10;4.60;;;8.30;42.80;;;;;;5051309;28;20469;-71
2023/04/16 03:59:08;;;;;;;8.10;5.00;;;8.30;42.90;;;;;;5053339;28;20508;-71
2023/04/16 04:01:35;;;;;;;7.63;5.13;;;8.30;43.10;;;;;;5042695;28;20474;-71
2023/04/16 04:04:02;;;;;;;8.60;5.33;;;8.30;42.90;;;;;;5040114;28;21014;-71
2023/04/16 04:06:28;;;;;;;7.30;5.20;;;8.30;43.10;;;;;;5048264;28;20462;-71
2023/04/16 04:08:55;;;;;;;7.97;5.07;;;8.30;43.10;;;;;;5035819;28;20492;-71
2023/04/16 04:11:22;;;;;;;7.37;4.87;;;8.30;43.10;;;;;;5047708;28;20483;-71
2023/04/16 04:13:50;;;;;;;8.07;5.17;;;8.40;43.10;;;;;;5043385;28;20505;-70
2023/04/16 04:16:17;;;;;;;9.53;5.00;;;8.30;43.20;;;;;;5053934;28;20470;-71
2023/04/16 04:18:43;;;;;;;7.03;4.37;;;8.30;43.10;;;;;;5053529;28;20463;-71
2023/04/16 04:21:10;;;;;;;7.60;4.67;;;8.30;43.10;;;;;;5071966;28;20484;-71
2023/04/16 04:23:37;;;;;;;7.30;4.87;;;8.40;43.20;;;;;;5065615;28;20469;-72
2023/04/16 04:26:06;;;;;;;7.93;4.90;;;8.30;43.40;;;;;;5064160;28;20457;-71
2023/04/16 04:28:33;;;;;;;7.33;4.80;;;8.30;43.20;;;;;;5061257;28;21127;-66
2023/04/16 04:31:01;;;;;;;8.00;5.10;;;8.40;43.10;;;;;;5046634;28;20895;-66
2023/04/16 04:33:28;;;;;;;9.40;5.10;;;8.40;43.30;;;;;;5054577;28;20484;-67
2023/04/16 04:35:56;;;;;;;7.43;4.47;;;8.30;43.50;;;;;;5058734;28;20958;-66
2023/04/16 04:38:24;;;;;;;7.50;4.20;;;8.30;43.60;;;;;;5062325;28;20495;-67
2023/04/16 04:40:51;;;;;;;7.53;4.33;;;8.40;43.60;;;;;;5070545;22;20578;-69
2023/04/16 04:43:18;;;;;;;8.03;4.80;;;8.40;43.70;;;;;;5079912;28;20472;-69
2023/04/16 04:45:45;;;;;;;8.37;4.83;;;8.40;43.40;;;;;;5082060;28;20465;-69
2023/04/16 04:48:13;;;;;;;7.13;4.33;;;8.40;43.70;;;;;;5078452;28;20483;-69
2023/04/16 04:50:41;;;;;;;7.50;4.33;;;8.40;43.80;;;;;;5080267;28;20508;-69
2023/04/16 04:53:09;;;;;;;7.67;4.57;;;8.40;43.70;;;;;;5074568;28;20467;-69
2023/04/16 04:55:37;;;;;;;7.37;4.40;;;8.40;43.80;;;;;;5078617;28;20936;-70
2023/04/16 04:58:04;;;;;;;6.80;4.30;;;8.40;43.70;;;;;;5077069;28;20496;-70
2023/04/16 05:00:31;;;;;;;7.13;4.27;;;8.40;43.80;;;;;;5078115;28;20487;-70
2023/04/16 05:02:58;;;;;;;7.27;4.97;;;8.40;43.80;;;;;;5076461;28;20472;-70
2023/04/16 05:05:26;;;;;;;8.27;4.43;;;8.40;43.80;;;;;;5083705;28;20467;-70
2023/04/16 05:07:53;;;;;;;8.10;5.00;;;8.40;43.90;;;;;;5076409;28;20830;-70
2023/04/16 05:10:20;;;;;;;7.50;4.30;;;8.50;44.00;;;;;;5076287;28;21007;-70
2023/04/16 05:12:47;;;;;;;7.00;4.20;;;8.50;44.10;;;;;;5075510;28;20475;-70
2023/04/16 05:15:14;;;;;;;7.60;4.10;;;8.50;44.10;;;;;;5079828;28;20516;-70
2023/04/16 05:17:41;;;;;;;6.77;3.70;;;8.50;44.20;;;;;;5079079;28;20468;-69
2023/04/16 05:20:08;;;;;;;8.43;4.80;;;8.50;44.80;;;;;;5078049;28;20479;-69
2023/04/16 05:22:37;;;;;;;7.00;4.20;;;8.50;44.10;;;;;;5076598;28;20460;-70
2023/04/16 05:25:04;;;;;;;6.97;3.80;;;8.50;43.90;;;;;;5075252;28;20568;-70
2023/04/16 05:27:30;;;;;;;7.60;4.17;;;8.50;43.80;;;;;;5081108;28;20508;-69
2023/04/16 05:29:57;;;;;;;7.07;4.00;;;8.60;43.80;;;;;;5080854;28;20479;-70
2023/04/16 05:32:26;;;;;;;8.43;3.90;;;8.60;43.60;;;;;;5081378;28;20469;-69
2023/04/16 05:34:52;;;;;;;7.20;4.10;;;8.60;43.60;;;;;;5077739;28;20465;-70
2023/04/16 05:37:19;;;;;;;6.40;3.60;;;8.60;43.50;;;;;;5078066;28;20960;-70
2023/04/16 05:39:47;;;;;;;7.77;4.20;;;8.70;43.70;;;;;;5075524;28;20503;-70
2023/04/16 05:42:15;;;;;;;7.20;4.03;;;8.70;43.80;;;;;;5080856;28;20886;-70
2023/04/16 05:44:41;;;;;;;7.07;3.80;;;8.70;43.50;;;;;;5082277;28;20965;-69
2023/04/16 05:47:08;;;;;;;7.27;4.17;;;8.70;43.60;;;;;;5081458;28;20460;-70
2023/04/16 05:49:35;;;;;;;6.87;3.57;;;8.80;43.30;;;;;;5077543;28;20492;-70
2023/04/16 05:52:02;;;;;;;6.40;3.77;;;8.80;43.10;;;;;;5075739;28;20497;-70
2023/04/16 05:54:29;;;;;;;6.30;3.50;;;8.80;43.10;;;;;;5080734;28;20460;-70
2023/04/16 05:56:57;;;;;;;7.40;3.70;;;8.90;43.20;;;;;;5075729;28;20502;-70
2023/04/16 05:59:24;;;;;;;6.80;2.90;;;8.90;43.30;;;;;;5074845;28;20987;-70
2023/04/16 06:01:51;;;;;;;6.93;3.77;;;8.90;43.10;;;;;;5080059;28;20472;-69
2023/04/16 06:04:17;;;;;;;5.43;2.67;;;8.90;43.00;;;;;;5076952;28;20472;-70
2023/04/16 06:06:44;;;;;;;8.33;3.43;;;9.00;43.00;;;;;;5085049;28;20469;-70
2023/04/16 06:09:11;;;;;;;5.50;2.93;;;9.00;42.90;;;;;;5082874;28;20478;-70
2023/04/16 06:11:38;;;;;;;5.87;3.07;;;9.00;42.50;;;;;;5082165;28;20489;-70
2023/04/16 06:14:06;;;;;;;6.13;3.10;;;9.10;42.80;;;;;;5077341;28;20464;-70
2023/04/16 06:16:33;;;;;;;6.07;3.33;;;9.10;42.70;;;;;;5086052;28;20472;-70
2023/04/16 06:18:59;;;;;;;5.73;2.53;;;9.10;42.30;;;;;;5084466;28;20464;-70
2023/04/16 06:21:27;;;;;;;5.70;2.80;;;9.20;42.00;;;;;;5087918;28;20845;-70
2023/04/16 06:23:54;;;;;;;5.80;2.67;;;9.20;42.10;;;;;;5082071;28;20467;-70
2023/04/16 06:26:21;;;;;;;4.93;2.07;;;9.20;42.10;;;;;;5079232;28;20464;-70
2023/04/16 06:28:48;;;;;;;4.80;2.17;;;9.20;41.90;;;;;;5083586;28;20488;-70
2023/04/16 06:31:16;;;;;;;5.17;2.07;;;9.30;42.00;;;;;;5078758;28;20488;-70
2023/04/16 06:33:43;;;;;;;4.67;1.73;;;9.30;42.00;;;;;;5070940;28;20460;-70
2023/04/16 06:36:10;;;;;;;4.80;1.83;;;9.30;42.00;;;;;;5082949;28;20486;-70
2023/04/16 06:38:37;;;;;;;5.57;2.57;;;9.40;41.60;;;;;;5080485;28;20526;-70
2023/04/16 06:41:04;;;;;;;7.53;2.60;;;9.40;41.70;;;;;;5057055;22;20501;-74
2023/04/16 06:43:32;;;;;;;5.13;2.07;;;9.50;41.70;;;;;;5045247;28;20468;-68
2023/04/16 06:45:59;;;;;;;4.90;2.20;;;9.50;41.60;;;;;;5042861;28;20466;-74
2023/04/16 06:48:27;;;;;;;4.40;1.60;;;9.50;41.80;;;;;;5047617;28;20507;-71
2023/04/16 06:50:54;;;;;;;4.93;2.17;;;9.50;41.70;;;;;;5051136;28;20800;-70
2023/04/16 06:53:21;;;;;;;4.60;1.80;;;9.60;41.60;;;;;;5039740;28;20580;-71
2023/04/16 06:55:48;;;;;;;4.70;1.70;;;9.60;41.40;;;;;;5057873;28;20468;-71
2023/04/16 06:58:15;;;;;;;4.67;1.77;;;9.60;41.40;;;;;;5059391;28;20961;-69
2023/04/16 07:00:41;;;;;;;4.80;1.60;;;9.60;41.30;;;;;;5060172;28;20476;-67
2023/04/16 07:03:08;;;;;;;4.50;1.50;;;9.70;41.10;;;;;;5073232;22;20499;-65
2023/04/16 07:05:36;;;;;;;4.73;1.80;;;9.80;40.90;;;;;;5122908;27;21001;-66
2023/04/16 07:08:03;;;;;;;4.10;1.43;;;9.80;40.60;;;;;;5129731;27;20478;-66
2023/04/16 07:10:30;;;;;;;4.80;1.80;;;9.90;40.60;;;;;;5111247;27;20483;-66
2023/04/16 07:12:56;;;;;;;4.50;1.60;;;9.90;41.10;;;;;;5120265;27;20890;-66
2023/04/16 07:15:23;;;;;;;5.50;2.10;;;10.00;40.50;;;;;;5115824;27;20841;-66
2023/04/16 07:17:50;;;;;;;4.67;1.70;;;10.10;40.20;;;;;;5123936;27;20454;-66
2023/04/16 07:20:17;;;;;;;4.20;1.43;;;10.10;40.20;;;;;;5126483;27;20459;-66
2023/04/16 07:22:45;;;;;;;4.70;2.10;;;10.10;40.10;;;;;;5115236;27;20474;-65
2023/04/16 07:25:11;;;;;;;4.33;1.67;;;10.20;39.90;;;;;;5122671;27;20463;-66
2023/04/16 07:27:38;;;;;;;4.90;1.87;;;10.20;39.90;;;;;;5117895;27;20958;-67
2023/04/16 07:30:06;;;;;;;4.90;1.87;;;10.20;39.80;;;;;;5124369;27;20471;-67
2023/04/16 07:32:33;;;;;;;4.87;1.60;;;10.30;39.80;;;;;;5123735;27;20570;-67
2023/04/16 07:35:00;;;;;;;7.43;3.53;;;10.30;39.20;;;;;;5119908;27;20966;-70
2023/04/16 07:37:27;;;;;;;6.60;3.93;;;10.30;39.30;;;;;;5116950;27;20466;-68
2023/04/16 07:39:56;;;;;;;5.00;2.10;;;10.40;39.20;;;;;;5109882;27;20458;-68
2023/04/16 07:42:23;;;;;;;4.63;2.07;;;10.40;38.80;;;;;;5114908;27;20482;-70
2023/04/16 07:44:50;;;;;;;4.97;2.00;;;10.40;38.80;;;;;;5119541;27;20471;-70
2023/04/16 07:47:16;;;;;;;4.90;1.80;;;10.50;38.90;;;;;;5116103;27;20463;-69
2023/04/16 07:49:43;;;;;;;4.47;1.43;;;10.50;38.90;;;;;;5123577;27;21057;-69
2023/04/16 07:52:10;;;;;;;4.40;1.53;;;10.60;38.80;;;;;;5120534;27;20483;-69
2023/04/16 07:54:36;;;;;;;4.50;1.77;;;10.60;38.50;;;;;;5123971;27;20454;-68
2023/04/16 07:57:04;;;;;;;5.47;2.07;;;10.70;38.50;;;;;;5120476;27;20462;-68
2023/04/16 07:59:31;;;;;;;5.03;1.80;;;10.70;38.30;;;;;;5116409;27;20488;-68
2023/04/16 08:01:58;;;;;;;4.33;1.50;;;10.80;38.20;;;;;;5116032;27;20474;-69
2023/04/16 08:04:26;;;;;;;4.53;1.70;;;10.90;38.70;;;;;;5109609;27;20479;-69
2023/04/16 08:06:53;;;;;;;5.23;1.57;;;10.90;38.50;;;;;;5119263;27;20470;-68
2023/04/16 08:09:20;;;;;;;4.80;1.80;;;10.90;38.10;;;;;;5118880;27;20478;-69
2023/04/16 08:11:48;;;;;;;4.60;1.70;;;11.10;37.90;;;;;;5119971;27;20974;-68
2023/04/16 08:14:16;;;;;;;6.00;2.23;;;11.10;37.90;;;;;;5113765;27;20503;-69
2023/04/16 08:16:42;;;;;;;4.87;1.90;;;11.20;37.80;;;;;;5120156;27;20982;-70
2023/04/16 08:19:09;;;;;;;4.50;1.80;;;11.20;37.80;;;;;;5117070;27;20459;-69
2023/04/16 08:21:36;;;;;;;4.67;1.87;;;11.20;37.80;;;;;;5117882;27;20474;-69
2023/04/16 08:24:03;;;;;;;4.30;1.43;;;11.30;37.90;;;;;;5111065;27;20455;-69
2023/04/16 08:26:30;;;;;;;4.13;1.47;;;11.30;37.90;;;;;;5111952;27;20487;-68
2023/04/16 08:28:56;;;;;;;4.30;1.30;;;11.30;37.70;;;;;;5110758;27;20481;-69
2023/04/16 08:31:24;;;;;;;7.10;1.57;;;11.30;37.70;;;;;;5114360;27;20482;-72
2023/04/16 08:33:51;;;;;;;4.40;1.20;;;11.40;37.90;;;;;;5109991;27;20977;-71
2023/04/16 08:36:18;;;;;;;4.50;1.70;;;11.40;37.80;;;;;;5123002;27;20477;-72
2023/04/16 08:38:44;;;;;;;6.03;1.93;;;11.50;37.70;;;;;;5118460;27;20459;-71
2023/04/16 08:41:12;;;;;;;4.20;1.60;;;11.60;37.50;;;;;;5121846;27;20474;-71
2023/04/16 08:43:44;;;;;;;5.40;2.03;;;11.60;37.40;;;;;;5116081;27;20458;-71
2023/04/16 08:46:12;;;;;;;4.90;2.00;;;11.70;37.50;;;;;;5114884;27;20472;-71
2023/04/16 08:48:43;;;;;;;5.27;1.80;;;11.70;37.20;;;;;;5113982;27;20475;-70
2023/04/16 08:51:11;;;;;;;4.43;1.73;;;11.70;37.00;;;;;;5115614;27;20510;-71
2023/04/16 08:53:48;;;;;;;5.33;2.07;;;11.80;36.90;;;;;;5115843;27;20547;-71
2023/04/16 08:56:17;;;;;;;5.00;1.73;;;11.80;36.80;;;;;;5112819;27;20471;-71
2023/04/16 08:58:46;;;;;;;4.93;1.93;;;11.90;36.60;;;;;;5121107;27;20462;-69
2023/04/16 09:01:13;;;;;;;5.00;1.90;;;11.90;36.50;;;;;;5116164;27;20498;-69
2023/04/16 09:03:41;;;;;;;3.90;1.00;;;12.00;36.80;;;;;;5120411;27;20466;-69
2023/04/16 09:06:09;;;;;;;4.20;1.20;;;11.90;36.20;;;;;;5120505;27;20458;-69
2023/04/16 09:08:37;;;;;;;4.60;1.40;;;11.90;36.10;;;;;;5114287;27;20513;-69
2023/04/16 09:11:04;;;;;;;5.00;2.00;;;12.00;35.90;;;;;;5114618;27;20495;-69
2023/04/16 09:13:31;;;;;;;4.43;1.33;;;12.10;35.70;;;;;;5121435;27;20470;-68
2023/04/16 09:15:59;;;;;;;4.27;1.30;;;12.20;35.60;;;;;;5113210;27;20475;-69
2023/04/16 09:18:26;;;;;;;4.80;1.40;;;12.30;35.50;;;;;;5114629;27;20977;-69
2023/04/16 09:20:55;;;;;;;5.87;1.67;;;12.40;34.80;;;;;;5112297;27;20532;-68
2023/04/16 09:23:23;;;;;;;4.23;1.53;;;12.50;34.80;;;;;;5110655;27;20578;-68
2023/04/16 09:25:50;;;;;;;5.00;1.33;;;12.50;34.50;;;;;;5115143;27;20475;-69
2023/04/16 09:28:38;;;;;;;4.80;1.20;;;12.50;34.40;;;;;;5110837;27;20494;-70
2023/04/16 09:31:09;;;;;;;4.30;1.30;;;12.60;34.30;;;;;;5123040;27;20483;-69
2023/04/16 09:33:36;;;;;;;4.93;1.77;;;12.60;33.60;;;;;;5118696;27;20474;-68
2023/04/16 09:36:05;;;;;;;6.40;2.60;;;12.70;33.70;;;;;;5123442;27;20461;-68
2023/04/16 09:38:46;;;;;;;5.00;1.43;;;12.70;33.90;;;;;;5115426;27;20473;-69
2023/04/16 09:41:15;;;;;;;4.40;1.57;;;12.80;33.90;;;;;;5120004;27;20862;-67
2023/04/16 09:43:42;;;;;;;4.30;1.43;;;12.80;33.50;;;;;;5115820;27;20593;-69
2023/04/16 09:46:11;;;;;;;4.77;1.90;;;12.80;32.80;;;;;;5116233;27;20462;-68
2023/04/16 09:48:38;;;;;;;5.03;1.90;;;12.80;32.80;;;;;;5119804;27;20458;-69
2023/04/16 09:51:07;;;;;;;4.30;1.57;;;12.80;32.80;;;;;;5123983;27;20489;-67
2023/04/16 09:53:34;;;;;;;7.90;1.90;;;12.80;32.80;;;;;;5105436;27;20541;-68
2023/04/16 09:56:02;;;;;;;5.03;1.73;;;12.90;32.90;;;;;;5111405;27;20463;-70
2023/04/16 09:58:29;;;;;;;5.80;1.87;;;12.90;32.60;;;;;;5121883;27;21326;-68
2023/04/16 10:01:00;;;;;;;4.83;1.73;;;12.90;32.10;;;;;;5118664;27;20463;-68
2023/04/16 10:03:30;;;;;;;4.60;2.00;;;12.80;31.60;;;;;;5110196;27;20474;-69
2023/04/16 10:06:00;;;;;;;4.53;1.80;;;12.70;31.70;;;;;;5121050;27;20504;-69
2023/04/16 10:08:28;;;;;;;6.93;2.67;;;12.70;32.00;;;;;;5121105;27;20776;-68
2023/04/16 10:10:56;;;;;;;5.30;2.33;;;12.60;32.10;;;;;;5113919;27;21089;-68
2023/04/16 10:13:26;;;;;;;4.60;1.90;;;12.50;32.10;;;;;;5113425;27;20503;-68
2023/04/16 10:15:55;;;;;;;4.40;1.80;;;12.50;32.40;;;;;;5102951;27;20558;-68
2023/04/16 10:18:22;;;;;;;5.10;2.33;;;12.40;32.30;;;;;;5110604;27;20464;-72
2023/04/16 10:20:50;;;;;;;6.07;2.97;;;12.30;32.50;;;;;;5103614;27;21021;-72
2023/04/16 10:23:17;;;;;;;5.30;2.40;;;12.20;32.40;;;;;;5097142;27;21088;-71
2023/04/16 10:25:45;;;;;;;6.00;3.23;;;12.20;32.40;;;;;;5111499;27;20458;-72
2023/04/16 10:28:13;;;;;;;5.87;2.77;;;12.10;33.00;;;;;;5107871;27;20462;-71
2023/04/16 10:30:41;;;;;;;8.00;3.40;;;12.10;33.10;;;;;;5117362;27;20466;-73
2023/04/16 10:33:09;;;;;;;6.33;2.67;;;12.10;33.00;;;;;;5111050;27;20562;-72
2023/04/16 10:35:39;;;;;;;5.10;2.10;;;12.00;33.10;;;;;;5119173;27;20773;-73
2023/04/16 10:38:22;;;;;;;4.77;2.20;;;12.10;33.00;;;;;;5111109;27;20535;-72
2023/04/16 10:40:50;;;;;;;5.00;1.97;;;12.10;33.30;;;;;;5114007;27;21920;-68
2023/04/16 10:43:18;;;;;;;5.37;2.17;;;12.10;32.80;;;;;;5119421;27;20474;-68
2023/04/16 10:45:47;;;;;;;7.63;2.83;;;12.00;33.00;;;;;;5117914;27;20510;-69
2023/04/16 10:48:15;;;;;;;4.90;2.17;;;12.10;32.60;;;;;;5118752;27;20954;-67
2023/04/16 10:50:42;;;;;;;7.10;2.37;;;12.00;32.90;;;;;;5117495;27;21205;-68
2023/04/16 10:53:19;;;;;;;4.97;2.43;;;12.00;33.20;;;;;;5118046;27;20458;-68
2023/04/16 10:56:14;;;;;;;6.00;2.50;;;11.90;33.40;;;;;;5112574;27;20520;-68
2023/04/16 10:58:41;;;;;;;5.60;2.30;;;11.90;33.70;;;;;;5121152;27;20462;-68
2023/04/16 11:01:12;;;;;;;4.80;1.87;;;11.90;33.90;;;;;;5118691;27;20489;-70
2023/04/16 11:03:42;;;;;;;4.97;1.93;;;11.90;33.90;;;;;;5114546;27;20539;-69
2023/04/16 11:06:16;;;;;;;4.80;1.63;;;11.90;34.10;;;;;;5118779;27;20486;-69
2023/04/16 11:08:45;;;;;;;5.00;2.00;;;11.90;34.40;;;;;;5112486;27;20454;-70
2023/04/16 11:11:13;;;;;;;4.47;1.67;;;11.90;34.20;;;;;;5110525;27;20971;-71
2023/04/16 11:13:44;;;;;;;5.60;2.10;;;11.90;34.40;;;;;;5115219;27;20474;-71
2023/04/16 11:16:11;;;;;;;5.20;2.17;;;11.90;34.50;;;;;;5119964;27;20811;-72
2023/04/16 11:18:40;;;;;;;5.50;2.10;;;12.00;34.20;;;;;;5123439;27;20454;-70
2023/04/16 11:21:08;;;;;;;5.53;2.03;;;12.00;34.10;;;;;;5116022;27;20475;-71
2023/04/16 11:23:46;;;;;;;5.20;2.00;;;12.00;34.30;;;;;;5115521;27;20463;-70
2023/04/16 11:26:24;;;;;;;5.27;2.20;;;11.90;34.20;;;;;;5116767;27;20486;-71
2023/04/16 11:28:51;;;;;;;5.90;2.10;;;11.90;34.70;;;;;;5114839;27;20571;-71
2023/04/16 11:31:18;;;;;;;5.57;2.10;;;11.80;34.30;;;;;;5107099;27;21010;-71
2023/04/16 11:33:45;;;;;;;4.80;1.93;;;11.80;34.50;;;;;;5117670;27;20471;-68
2023/04/16 11:36:12;;;;;;;5.20;1.97;;;11.80;34.80;;;;;;5117553;27;20510;-70
2023/04/16 11:38:41;;;;;;;5.63;2.60;;;11.80;34.70;;;;;;5119718;27;20456;-70
2023/04/16 11:41:08;;;;;;;5.50;1.97;;;11.80;34.70;;;;;;5124822;27;20477;-70
2023/04/16 11:43:36;;;;;;;5.80;2.47;;;11.80;34.90;;;;;;5116675;27;20466;-70
2023/04/16 11:46:06;;;;;;;6.60;2.37;;;11.90;35.00;;;;;;5116288;27;20475;-70
2023/04/16 11:48:49;;;;;;;4.90;2.10;;;11.90;34.50;;;;;;5123591;27;20478;-70
2023/04/16 11:51:16;;;;;;;4.90;1.73;;;11.90;34.50;;;;;;5126467;27;20490;-70
2023/04/16 11:53:51;;;;;;;5.97;2.37;;;11.90;34.40;;;;;;5114242;27;20616;-70
2023/04/16 11:56:27;;;;;;;9.73;3.00;;;11.90;34.20;;;;;;5127001;27;21016;-70
2023/04/16 11:59:09;;;;;;;6.33;2.50;;;11.90;34.50;;;;;;5128786;27;20466;-70
2023/04/16 12:01:37;;;;;;;5.57;2.53;;;11.90;34.60;;;;;;5116775;27;20490;-69
2023/04/16 12:04:04;;;;;;;5.30;2.53;;;12.00;34.30;;;;;;5114455;27;20474;-69
2023/04/16 12:06:31;;;;;;;5.97;2.13;;;11.90;33.50;;;;;;5115761;27;20534;-70
2023/04/16 12:08:58;;;;;;;5.00;1.90;;;11.90;33.60;;;;;;5110169;27;20456;-69
2023/04/16 12:11:38;;;;;;;5.23;2.33;;;11.90;33.80;;;;;;5113738;27;20494;-69
2023/04/16 12:14:11;;;;;;;4.87;2.20;;;11.80;33.90;;;;;;5116642;27;20517;-69
2023/04/16 12:16:37;;;;;;;4.90;1.93;;;11.90;34.00;;;;;;5115916;27;20466;-70
2023/04/16 12:19:05;;;;;;;5.43;2.30;;;11.90;34.20;;;;;;5112270;27;20466;-69
2023/04/16 12:21:40;;;;;;;5.33;2.53;;;11.90;34.00;;;;;;5108964;27;20481;-70
2023/04/16 12:24:09;;;;;;;6.10;2.67;;;11.90;34.20;;;;;;5117572;27;20458;-70
2023/04/16 12:26:42;;;;;;;8.53;3.77;;;11.90;34.10;;;;;;5113533;27;20511;-70
2023/04/16 12:29:21;;;;;;;6.37;3.37;;;11.90;34.30;;;;;;5115728;27;20463;-70
2023/04/16 12:31:49;;;;;;;5.53;2.60;;;11.80;34.40;;;;;;5125908;27;20900;-70
2023/04/16 12:34:17;;;;;;;6.30;3.10;;;11.70;34.60;;;;;;5118920;27;20477;-70
2023/04/16 12:36:44;;;;;;;6.90;3.00;;;11.70;34.10;;;;;;5119782;27;20475;-71
2023/04/16 12:39:11;;;;;;;6.00;2.90;;;11.60;34.40;;;;;;5117396;27;20490;-70
2023/04/16 12:41:39;;;;;;;6.33;2.87;;;11.60;34.20;;;;;;5116876;27;20483;-69
2023/04/16 12:44:10;;;;;;;5.97;3.10;;;11.60;35.00;;;;;;5114594;27;20467;-70
2023/04/16 12:46:39;;;;;;;6.90;3.30;;;11.50;34.20;;;;;;5115824;27;20551;-70
2023/04/16 12:49:06;;;;;;;9.00;4.63;;;11.50;34.20;;;;;;5114618;27;20798;-70
2023/04/16 12:51:33;;;;;;;6.37;3.03;;;11.50;34.20;;;;;;5110805;27;20508;-70
2023/04/16 12:54:00;;;;;;;6.13;2.40;;;11.50;34.20;;;;;;5110612;27;20465;-69
2023/04/16 12:56:27;;;;;;;5.70;2.90;;;11.40;34.40;;;;;;5118071;27;20549;-69